Asteria Leader — 7JIC — position and weather

sailwx.info

Track history (hours):
 
Tides and Currents Weather Stations Pressure Air Temp Water Temp Dewpoint Dewpoint Depression Visibility Wind Speed Wind Dir Waves Ship Positions

Asteria Leader

Last reported at 2017-Dec-11 13:23 UTC. Time now 2017-Dec-16 15:08 UTC.
Position N 36°05' W 026°08'.

Length 199 m; draft 8.9 m.

Type: Cargo ship. MMSI: 432790000.

Date/timePositionNaut miles runAvg speedWind from/ knotsBaromVisibWave heightAir tempDewpointWater temp
2017-Dec-11 13:23N 36°05' W 026°08'616.6
2017-Dec-11 13:00N 36°05' W 025°60'816.5
2017-Dec-11 12:30N 36°06' W 025°50'816.5
2017-Dec-11 12:00N 36°07' W 025°40'815.7
2017-Dec-11 11:30N 36°06' W 025°30'815.8
2017-Dec-11 11:00N 36°05' W 025°20'815.8
2017-Dec-11 10:31N 36°04' W 025°11'815.8
2017-Dec-11 10:00N 36°04' W 025°01'815.7
2017-Dec-11 09:31N 36°04' W 024°51'815.5
2017-Dec-11 09:01N 36°04' W 024°42'816.0
2017-Dec-11 08:30N 36°04' W 024°32'816.0
2017-Dec-11 08:00N 36°04' W 024°22'816.0
2017-Dec-11 07:31N 36°03' W 024°12'815.7
2017-Dec-11 07:00N 36°03' W 024°02'70515.0
2017-Dec-09 07:55N 35°58' W 009°30'41315.8
2017-Dec-08 05:41N 37°13' W 001°04'517.1
2017-Dec-08 05:23N 37°16' W 000°59'617.0
2017-Dec-08 05:00N 37°20' W 000°53'816.9
2017-Dec-08 04:30N 37°26' W 000°45'916.8
2017-Dec-08 03:57N 37°32' W 000°36'716.4
2017-Dec-08 03:30N 37°38' W 000°30'816.5
2017-Dec-08 03:00N 37°44' W 000°25'  
2017-Dec-04 03:19N 36°38' E 023°37'917.5
2017-Dec-04 02:48N 36°46' E 023°42'517.4
2017-Dec-04 02:30N 36°51' E 023°45'917.4
2017-Dec-04 02:01N 36°59' E 023°49'917.3
2017-Dec-04 01:30N 37°07' E 023°53'917.4
2017-Dec-04 01:01N 37°15' E 023°57'917.4
2017-Dec-04 00:30N 37°23' E 024°00'917.9
2017-Dec-04 00:01N 37°31' E 024°05'1018.3
2017-Dec-03 23:29N 37°39' E 024°11'918.2
2017-Dec-03 23:01N 37°46' E 024°18'918.2
2017-Dec-03 22:31N 37°52' E 024°27'917.6
2017-Dec-03 22:00N 37°57' E 024°36'  
Track history (hours):
 
Tides and Currents Weather Stations Pressure Air Temp Water Temp Dewpoint Dewpoint Depression Visibility Wind Speed Wind Dir Waves Ship Positions

Asteria Leader

Last reported at 2017-Dec-11 13:23 UTC. Time now 2017-Dec-16 15:08 UTC.
Position N 36°05' W 026°08'.

Length 199 m; draft 8.9 m.

Type: Cargo ship. MMSI: 432790000.

Date/timePositionNaut miles runAvg speedWind from/ knotsBaromVisibWave heightAir tempDewpointWater temp
2017-Dec-11 13:23N 36°05' W 026°08'616.6
2017-Dec-11 13:00N 36°05' W 025°60'816.5
2017-Dec-11 12:30N 36°06' W 025°50'816.5
2017-Dec-11 12:00N 36°07' W 025°40'815.7
2017-Dec-11 11:30N 36°06' W 025°30'815.8
2017-Dec-11 11:00N 36°05' W 025°20'815.8
2017-Dec-11 10:31N 36°04' W 025°11'815.8
2017-Dec-11 10:00N 36°04' W 025°01'815.7
2017-Dec-11 09:31N 36°04' W 024°51'815.5
2017-Dec-11 09:01N 36°04' W 024°42'816.0
2017-Dec-11 08:30N 36°04' W 024°32'816.0
2017-Dec-11 08:00N 36°04' W 024°22'816.0
2017-Dec-11 07:31N 36°03' W 024°12'815.7
2017-Dec-11 07:00N 36°03' W 024°02'70515.0
2017-Dec-09 07:55N 35°58' W 009°30'41315.8
2017-Dec-08 05:41N 37°13' W 001°04'517.1
2017-Dec-08 05:23N 37°16' W 000°59'617.0
2017-Dec-08 05:00N 37°20' W 000°53'816.9
2017-Dec-08 04:30N 37°26' W 000°45'916.8
2017-Dec-08 03:57N 37°32' W 000°36'716.4
2017-Dec-08 03:30N 37°38' W 000°30'816.5
2017-Dec-08 03:00N 37°44' W 000°25'  
2017-Dec-04 03:19N 36°38' E 023°37'917.5
2017-Dec-04 02:48N 36°46' E 023°42'517.4
2017-Dec-04 02:30N 36°51' E 023°45'917.4
2017-Dec-04 02:01N 36°59' E 023°49'917.3
2017-Dec-04 01:30N 37°07' E 023°53'917.4
2017-Dec-04 01:01N 37°15' E 023°57'917.4
2017-Dec-04 00:30N 37°23' E 024°00'917.9
2017-Dec-04 00:01N 37°31' E 024°05'1018.3
2017-Dec-03 23:29N 37°39' E 024°11'918.2
2017-Dec-03 23:01N 37°46' E 024°18'918.2
2017-Dec-03 22:31N 37°52' E 024°27'917.6
2017-Dec-03 22:00N 37°57' E 024°36'  

Dump ship's entire track history